Time;durP1;ratioP1;P1;durP2;ratioP2;P2;SDS_P1;SDS_P2;PMS_P1;PMS_P2;Temp;Humidity;BMP_temperature;BMP_pressure;BME280_temperature;BME280_humidity;BME280_pressure;Samples;Min_cycle;Max_cycle;Signal;HPM_P1;HPM_P2
2023/05/16 00:00:57;;;;;;;17.93;15.40;;;;;;;;;;5029373;28;20221;-74
2023/05/16 00:03:23;;;;;;;18.50;16.37;;;;;;;;;;5033238;28;20189;-75
2023/05/16 00:05:49;;;;;;;21.30;16.17;;;;;;;;;;5029483;28;20214;-74
2023/05/16 00:08:16;;;;;;;21.47;16.80;;;;;;;;;;5030877;28;20289;-75
2023/05/16 00:10:43;;;;;;;21.10;17.40;;;;;;;;;;5037060;28;20567;-75
2023/05/16 00:13:09;;;;;;;20.93;17.13;;;;;;;;;;5024449;28;20186;-74
2023/05/16 00:15:37;;;;;;;18.90;16.80;;;;;;;;;;5031011;28;20229;-75
2023/05/16 00:18:03;;;;;;;19.37;16.30;;;;;;;;;;5029515;28;20210;-75
2023/05/16 00:20:30;;;;;;;19.80;17.40;;;;;;;;;;5031177;28;20182;-74
2023/05/16 00:22:59;;;;;;;20.13;17.20;;;;;;;;;;5031427;28;20265;-75
2023/05/16 00:25:26;;;;;;;23.07;18.37;;;;;;;;;;5026160;28;20305;-75
2023/05/16 00:27:52;;;;;;;19.80;16.93;;;;;;;;;;5012334;28;20222;-74
2023/05/16 00:30:18;;;;;;;21.80;16.90;;;;;;;;;;5029669;28;20186;-75
2023/05/16 00:32:44;;;;;;;20.77;17.57;;;;;;;;;;5020226;28;20229;-75
2023/05/16 00:35:11;;;;;;;21.57;18.00;;;;;;;;;;4993270;28;20265;-75
2023/05/16 00:37:37;;;;;;;19.37;16.50;;;;;;;;;;5003398;28;20178;-74
2023/05/16 00:40:04;;;;;;;23.90;17.10;;;;;;;;;;5020986;28;20192;-74
2023/05/16 00:42:30;;;;;;;23.60;18.17;;;;;;;;;;4997642;28;20178;-74
2023/05/16 00:44:57;;;;;;;20.13;17.27;;;;;;;;;;5028094;28;20285;-74
2023/05/16 00:47:23;;;;;;;20.00;16.87;;;;;;;;;;5033232;28;20189;-75
2023/05/16 00:49:49;;;;;;;19.53;16.10;;;;;;;;;;5012403;28;20622;-75
2023/05/16 00:52:15;;;;;;;22.00;17.93;;;;;;;;;;5030565;28;20510;-74
2023/05/16 00:54:42;;;;;;;20.90;17.47;;;;;;;;;;5030344;28;20657;-74
2023/05/16 00:57:08;;;;;;;20.70;17.07;;;;;;;;;;5012764;28;20206;-74
2023/05/16 00:59:35;;;;;;;22.73;17.67;;;;;;;;;;4999073;28;20273;-74
2023/05/16 01:02:02;;;;;;;23.30;18.83;;;;;;;;;;5045687;28;20197;-74
2023/05/16 01:04:28;;;;;;;27.10;21.60;;;;;;;;;;5019220;28;20187;-75
2023/05/16 01:06:55;;;;;;;30.53;21.77;;;;;;;;;;5032667;28;20201;-74
2023/05/16 01:09:22;;;;;;;26.43;20.27;;;;;;;;;;5018165;28;20196;-74
2023/05/16 01:11:56;;;;;;;28.70;23.57;;;;;;;;;;5016433;28;20210;-74
2023/05/16 01:14:29;;;;;;;31.43;24.07;;;;;;;;;;5025796;28;20214;-74
2023/05/16 01:17:10;;;;;;;30.97;24.70;;;;;;;;;;5016171;28;20228;-74
2023/05/16 01:19:51;;;;;;;30.30;24.77;;;;;;;;;;5034358;28;20236;-75
2023/05/16 01:22:20;;;;;;;32.10;25.70;;;;;;;;;;5033639;28;20178;-75
2023/05/16 01:24:49;;;;;;;30.37;23.43;;;;;;;;;;5016532;28;20710;-74
2023/05/16 01:27:16;;;;;;;33.67;25.40;;;;;;;;;;5016251;28;20214;-74
2023/05/16 01:29:42;;;;;;;31.47;25.50;;;;;;;;;;5034094;28;20186;-74
2023/05/16 01:32:09;;;;;;;33.27;25.90;;;;;;;;;;5015922;28;20190;-75
2023/05/16 01:34:35;;;;;;;33.00;25.70;;;;;;;;;;4999870;28;20215;-75
2023/05/16 01:37:04;;;;;;;31.90;25.43;;;;;;;;;;5033948;28;20199;-75
2023/05/16 01:39:49;;;;;;;35.17;25.87;;;;;;;;;;5016300;28;20178;-74
2023/05/16 01:42:15;;;;;;;31.77;26.00;;;;;;;;;;5015554;28;20269;-74
2023/05/16 01:45:05;;;;;;;33.20;25.77;;;;;;;;;;5015649;28;20232;-75
2023/05/16 01:47:32;;;;;;;33.20;25.07;;;;;;;;;;5033541;28;20186;-75
2023/05/16 01:50:09;;;;;;;34.30;26.80;;;;;;;;;;5015609;28;20281;-74
2023/05/16 01:52:49;;;;;;;35.27;27.43;;;;;;;;;;5014992;28;20182;-74
2023/05/16 01:55:16;;;;;;;33.97;26.70;;;;;;;;;;5004712;28;20253;-74
2023/05/16 01:57:43;;;;;;;36.13;28.67;;;;;;;;;;5033485;28;20175;-74
2023/05/16 02:00:09;;;;;;;34.60;27.57;;;;;;;;;;5033247;28;20805;-74
2023/05/16 02:02:40;;;;;;;37.10;28.93;;;;;;;;;;5033188;28;20182;-74
2023/05/16 02:05:06;;;;;;;38.33;28.80;;;;;;;;;;5015720;28;20241;-74
2023/05/16 02:07:33;;;;;;;36.27;26.67;;;;;;;;;;4999297;28;20187;-75
2023/05/16 02:09:59;;;;;;;36.03;27.60;;;;;;;;;;5015718;28;20186;-74
2023/05/16 02:12:25;;;;;;;34.77;28.63;;;;;;;;;;5032789;28;20167;-74
2023/05/16 02:14:52;;;;;;;38.30;29.90;;;;;;;;;;5015502;28;20290;-74
2023/05/16 02:17:18;;;;;;;33.83;27.40;;;;;;;;;;5015390;28;20376;-74
2023/05/16 02:19:44;;;;;;;38.67;30.07;;;;;;;;;;5015420;28;20183;-74
2023/05/16 02:22:10;;;;;;;37.03;29.33;;;;;;;;;;5015140;28;20182;-74
2023/05/16 02:24:36;;;;;;;39.63;29.67;;;;;;;;;;5014580;28;20233;-74
2023/05/16 02:27:03;;;;;;;38.07;29.47;;;;;;;;;;5037150;28;20264;-74
2023/05/16 02:29:29;;;;;;;39.67;30.83;;;;;;;;;;5033268;28;20262;-74
2023/05/16 02:31:55;;;;;;;35.90;29.17;;;;;;;;;;5033984;28;20292;-74
2023/05/16 02:34:21;;;;;;;37.80;29.80;;;;;;;;;;5014312;28;20599;-74
2023/05/16 02:36:48;;;;;;;39.60;29.53;;;;;;;;;;5028216;28;20190;-74
2023/05/16 02:39:14;;;;;;;34.63;27.53;;;;;;;;;;5016823;28;20178;-74
2023/05/16 02:41:40;;;;;;;33.50;26.30;;;;;;;;;;5018290;28;20181;-74
2023/05/16 02:44:08;;;;;;;36.73;28.93;;;;;;;;;;5030041;28;20174;-74
2023/05/16 02:46:35;;;;;;;35.40;27.33;;;;;;;;;;5007720;28;20213;-75
2023/05/16 02:49:03;;;;;;;36.70;30.13;;;;;;;;;;5014779;28;20229;-74
2023/05/16 02:51:30;;;;;;;34.13;27.87;;;;;;;;;;5032182;28;20229;-74
2023/05/16 02:53:58;;;;;;;33.97;27.37;;;;;;;;;;5042149;28;20175;-74
2023/05/16 02:56:25;;;;;;;37.50;29.13;;;;;;;;;;5021953;28;20249;-74
2023/05/16 02:58:51;;;;;;;38.20;29.40;;;;;;;;;;5052161;28;20285;-74
2023/05/16 03:01:17;;;;;;;41.27;30.97;;;;;;;;;;5036754;28;20210;-74
2023/05/16 03:03:44;;;;;;;36.50;27.57;;;;;;;;;;5049963;28;20243;-74
2023/05/16 03:06:12;;;;;;;36.67;29.77;;;;;;;;;;5032362;28;20202;-74
2023/05/16 03:08:38;;;;;;;39.30;30.67;;;;;;;;;;5032220;28;20186;-75
2023/05/16 03:11:05;;;;;;;43.13;32.13;;;;;;;;;;5015374;28;20191;-74
2023/05/16 03:13:31;;;;;;;42.87;31.73;;;;;;;;;;5030043;28;20186;-75
2023/05/16 03:15:58;;;;;;;42.97;33.57;;;;;;;;;;5013937;28;20680;-74
2023/05/16 03:18:24;;;;;;;43.80;33.00;;;;;;;;;;5014286;28;20179;-74
2023/05/16 03:20:54;;;;;;;41.27;31.43;;;;;;;;;;5043348;28;20259;-75
2023/05/16 03:23:23;;;;;;;40.90;31.27;;;;;;;;;;5027567;28;20174;-75
2023/05/16 03:25:49;;;;;;;44.33;33.50;;;;;;;;;;5036117;28;20210;-75
2023/05/16 03:28:20;;;;;;;40.30;31.33;;;;;;;;;;5006224;28;20190;-75
2023/05/16 03:30:46;;;;;;;36.73;28.47;;;;;;;;;;5031870;28;20269;-74
2023/05/16 03:33:12;;;;;;;36.90;28.47;;;;;;;;;;5014516;28;20191;-75
2023/05/16 03:35:39;;;;;;;39.17;28.90;;;;;;;;;;5034811;28;20210;-75
2023/05/16 03:38:05;;;;;;;38.27;28.00;;;;;;;;;;5016684;28;20186;-75
2023/05/16 03:40:31;;;;;;;35.70;28.40;;;;;;;;;;5034886;28;20174;-74
2023/05/16 03:42:57;;;;;;;36.90;27.27;;;;;;;;;;5013490;28;20198;-74
2023/05/16 03:45:23;;;;;;;34.50;27.03;;;;;;;;;;5031450;28;20202;-74
2023/05/16 03:47:50;;;;;;;33.60;25.37;;;;;;;;;;5031691;28;20232;-75
2023/05/16 03:50:16;;;;;;;36.93;27.70;;;;;;;;;;5031367;28;20530;-74
2023/05/16 03:52:42;;;;;;;31.77;25.30;;;;;;;;;;5013554;28;20585;-72
2023/05/16 03:55:09;;;;;;;37.80;26.23;;;;;;;;;;5031292;28;20210;-72
2023/05/16 03:57:40;;;;;;;30.70;24.43;;;;;;;;;;5031186;28;20556;-73
2023/05/16 04:00:11;;;;;;;31.87;24.73;;;;;;;;;;5031410;28;20193;-73
2023/05/16 04:02:40;;;;;;;28.70;22.53;;;;;;;;;;5013252;28;20203;-72
2023/05/16 04:05:08;;;;;;;28.67;22.63;;;;;;;;;;5013673;28;20189;-73
2023/05/16 04:07:34;;;;;;;33.77;23.23;;;;;;;;;;5013254;28;20194;-72
2023/05/16 04:10:00;;;;;;;32.13;23.97;;;;;;;;;;5031000;28;20178;-72
2023/05/16 04:12:26;;;;;;;26.17;20.33;;;;;;;;;;5030268;28;20186;-72
2023/05/16 04:14:52;;;;;;;26.87;20.67;;;;;;;;;;5013276;28;20580;-72
2023/05/16 04:17:18;;;;;;;28.17;21.23;;;;;;;;;;5031146;28;20206;-72
2023/05/16 04:19:44;;;;;;;26.80;21.13;;;;;;;;;;4997276;28;20235;-73
2023/05/16 04:22:11;;;;;;;26.80;21.17;;;;;;;;;;5030682;28;20269;-72
2023/05/16 04:24:37;;;;;;;27.13;20.87;;;;;;;;;;5030621;28;20286;-72
2023/05/16 04:27:03;;;;;;;31.87;22.03;;;;;;;;;;5040491;28;20229;-72
2023/05/16 04:29:31;;;;;;;25.80;20.47;;;;;;;;;;5032736;28;20273;-72
2023/05/16 04:31:57;;;;;;;29.93;21.63;;;;;;;;;;5029865;28;20667;-72
2023/05/16 04:34:26;;;;;;;26.47;20.07;;;;;;;;;;5043104;28;21005;-72
2023/05/16 04:36:55;;;;;;;23.43;19.27;;;;;;;;;;5045533;28;20260;-72
2023/05/16 04:39:22;;;;;;;26.30;19.90;;;;;;;;;;4998594;28;20702;-73
2023/05/16 04:41:48;;;;;;;28.63;19.90;;;;;;;;;;5045725;28;20301;-73
2023/05/16 04:44:14;;;;;;;27.20;19.97;;;;;;;;;;5041131;28;20269;-73
2023/05/16 04:46:40;;;;;;;28.67;21.13;;;;;;;;;;5042715;28;20739;-73
2023/05/16 04:49:07;;;;;;;24.60;19.73;;;;;;;;;;5019445;28;20209;-72
2023/05/16 04:51:33;;;;;;;22.77;19.00;;;;;;;;;;5040734;28;20174;-72
2023/05/16 04:53:59;;;;;;;25.33;19.60;;;;;;;;;;5030985;28;20572;-72
2023/05/16 04:56:26;;;;;;;29.73;20.07;;;;;;;;;;5032898;28;20272;-73
2023/05/16 04:58:53;;;;;;;24.27;18.03;;;;;;;;;;5020977;28;20175;-73
2023/05/16 05:01:19;;;;;;;24.93;19.53;;;;;;;;;;5028342;28;20664;-73
2023/05/16 05:03:46;;;;;;;26.27;20.17;;;;;;;;;;5039897;28;20281;-73
2023/05/16 05:06:12;;;;;;;24.43;19.03;;;;;;;;;;5034433;28;20240;-73
2023/05/16 05:08:38;;;;;;;24.47;19.10;;;;;;;;;;5040978;28;20183;-73
2023/05/16 05:11:04;;;;;;;22.33;18.60;;;;;;;;;;5033402;28;20175;-73
2023/05/16 05:13:30;;;;;;;26.60;19.33;;;;;;;;;;5023882;28;20562;-73
2023/05/16 05:15:56;;;;;;;23.57;18.70;;;;;;;;;;5034290;28;20206;-73
2023/05/16 05:18:23;;;;;;;26.47;20.47;;;;;;;;;;5036499;28;20194;-73
2023/05/16 05:20:49;;;;;;;25.67;19.30;;;;;;;;;;5038588;28;20185;-73
2023/05/16 05:23:15;;;;;;;24.97;19.67;;;;;;;;;;5019370;28;20166;-73
2023/05/16 05:25:42;;;;;;;26.03;19.33;;;;;;;;;;5041590;28;20866;-73
2023/05/16 05:28:08;;;;;;;26.80;20.13;;;;;;;;;;5036404;28;20681;-73
2023/05/16 05:30:34;;;;;;;24.10;19.20;;;;;;;;;;5041851;28;20224;-73
2023/05/16 05:33:00;;;;;;;24.60;19.07;;;;;;;;;;5037863;28;20293;-73
2023/05/16 05:35:26;;;;;;;27.23;19.90;;;;;;;;;;5023865;28;20221;-72
2023/05/16 05:37:52;;;;;;;25.90;17.97;;;;;;;;;;5033612;28;20248;-72
2023/05/16 05:40:18;;;;;;;26.50;19.03;;;;;;;;;;5025340;28;20210;-74
2023/05/16 05:42:44;;;;;;;27.23;18.67;;;;;;;;;;5038774;28;20191;-72
2023/05/16 05:45:11;;;;;;;26.47;19.00;;;;;;;;;;5033446;28;20194;-72
2023/05/16 05:47:37;;;;;;;25.67;19.07;;;;;;;;;;5033693;28;20179;-73
2023/05/16 05:50:03;;;;;;;25.37;17.77;;;;;;;;;;5033242;28;20179;-76
2023/05/16 05:52:29;;;;;;;25.90;18.10;;;;;;;;;;5033491;28;20174;-73
2023/05/16 05:54:58;;;;;;;24.73;18.17;;;;;;;;;;5033214;28;20210;-73
2023/05/16 05:57:24;;;;;;;22.57;17.27;;;;;;;;;;5031404;28;20296;-71
2023/05/16 05:59:50;;;;;;;23.10;17.40;;;;;;;;;;5012207;28;20665;-71
2023/05/16 06:02:17;;;;;;;23.63;17.10;;;;;;;;;;5046859;28;20178;-72
2023/05/16 06:04:44;;;;;;;24.27;17.20;;;;;;;;;;5000492;28;20179;-72
2023/05/16 06:07:10;;;;;;;23.60;17.80;;;;;;;;;;5013686;28;20211;-72
2023/05/16 06:09:36;;;;;;;22.23;17.30;;;;;;;;;;4996430;28;20206;-72
2023/05/16 06:12:03;;;;;;;24.27;18.07;;;;;;;;;;4996543;28;20183;-72
2023/05/16 06:14:29;;;;;;;23.70;17.00;;;;;;;;;;5033018;28;20709;-71
2023/05/16 06:16:55;;;;;;;22.40;16.57;;;;;;;;;;5033260;28;20236;-71
2023/05/16 06:19:21;;;;;;;22.93;16.50;;;;;;;;;;5033428;28;20178;-72
2023/05/16 06:21:47;;;;;;;22.60;16.30;;;;;;;;;;5033270;28;20190;-72
2023/05/16 06:24:13;;;;;;;23.70;16.37;;;;;;;;;;5033024;28;20182;-72
2023/05/16 06:26:40;;;;;;;21.53;16.00;;;;;;;;;;5033234;28;20219;-72
2023/05/16 06:29:06;;;;;;;21.43;15.97;;;;;;;;;;5033085;28;20191;-72
2023/05/16 06:31:32;;;;;;;22.23;15.53;;;;;;;;;;5032926;28;20254;-72
2023/05/16 06:33:58;;;;;;;21.87;15.37;;;;;;;;;;5033444;28;20182;-72
2023/05/16 06:36:24;;;;;;;20.47;15.00;;;;;;;;;;5032979;28;20293;-72
2023/05/16 06:38:50;;;;;;;18.53;14.47;;;;;;;;;;5033155;28;20174;-72
2023/05/16 06:41:16;;;;;;;16.67;13.73;;;;;;;;;;5032850;28;20602;-72
2023/05/16 06:43:42;;;;;;;19.67;14.17;;;;;;;;;;5032869;28;20190;-72
2023/05/16 06:46:08;;;;;;;16.20;12.40;;;;;;;;;;5032422;28;20201;-75
2023/05/16 06:48:34;;;;;;;15.40;12.27;;;;;;;;;;5031513;28;20187;-72
2023/05/16 06:51:00;;;;;;;16.23;12.53;;;;;;;;;;5030964;28;20241;-72
2023/05/16 06:53:27;;;;;;;15.13;10.30;;;;;;;;;;5027690;28;20193;-72
2023/05/16 06:55:53;;;;;;;12.70;9.63;;;;;;;;;;5032608;28;20285;-72
2023/05/16 06:58:20;;;;;;;9.83;7.87;;;;;;;;;;5031974;28;20650;-72
2023/05/16 07:00:46;;;;;;;10.33;7.60;;;;;;;;;;5028947;28;20187;-72
2023/05/16 07:03:12;;;;;;;8.00;6.83;;;;;;;;;;5032010;28;20692;-72
2023/05/16 07:05:38;;;;;;;7.47;6.20;;;;;;;;;;5027339;28;20681;-72
2023/05/16 07:08:05;;;;;;;8.43;5.47;;;;;;;;;;5026756;28;20179;-72
2023/05/16 07:10:31;;;;;;;5.93;5.10;;;;;;;;;;5009716;28;20187;-72
2023/05/16 07:12:57;;;;;;;5.40;4.90;;;;;;;;;;5024830;28;20194;-72
2023/05/16 07:15:23;;;;;;;5.93;4.23;;;;;;;;;;5024349;28;20228;-71
2023/05/16 07:17:49;;;;;;;4.00;3.33;;;;;;;;;;5027147;28;20981;-72
2023/05/16 07:20:16;;;;;;;4.20;3.13;;;;;;;;;;5009256;28;20179;-72
2023/05/16 07:22:42;;;;;;;5.77;3.47;;;;;;;;;;5026207;28;20645;-73
2023/05/16 07:25:11;;;;;;;4.03;2.47;;;;;;;;;;5027344;28;20340;-72
2023/05/16 07:27:40;;;;;;;2.90;2.60;;;;;;;;;;5026712;28;20193;-72
2023/05/16 07:30:08;;;;;;;2.43;2.23;;;;;;;;;;5026422;28;20197;-72
2023/05/16 07:32:34;;;;;;;3.17;2.70;;;;;;;;;;5026605;28;20187;-73
2023/05/16 07:35:00;;;;;;;2.83;2.60;;;;;;;;;;5026889;28;20589;-73
2023/05/16 07:37:26;;;;;;;3.67;2.50;;;;;;;;;;5026011;28;20182;-72
2023/05/16 07:39:52;;;;;;;2.83;2.63;;;;;;;;;;5026565;28;20182;-72
2023/05/16 07:42:18;;;;;;;3.53;2.90;;;;;;;;;;5026112;28;20258;-72
2023/05/16 07:44:45;;;;;;;3.17;2.87;;;;;;;;;;5026581;28;20183;-72
2023/05/16 07:47:11;;;;;;;2.83;2.50;;;;;;;;;;5026864;28;20232;-72
2023/05/16 07:49:37;;;;;;;3.20;2.90;;;;;;;;;;5023735;28;21296;-72
2023/05/16 07:52:03;;;;;;;3.27;2.60;;;;;;;;;;5025693;28;20757;-72
2023/05/16 07:54:31;;;;;;;3.40;2.00;;;;;;;;;;5021634;28;20194;-72
2023/05/16 07:56:57;;;;;;;2.20;2.00;;;;;;;;;;5024468;28;20199;-72
2023/05/16 07:59:23;;;;;;;2.20;2.00;;;;;;;;;;5023608;28;20191;-72
2023/05/16 08:01:49;;;;;;;2.00;1.80;;;;;;;;;;5024131;28;20179;-72
2023/05/16 08:04:15;;;;;;;3.00;1.87;;;;;;;;;;5025220;28;20548;-72
2023/05/16 08:06:41;;;;;;;1.90;1.80;;;;;;;;;;5024436;28;20308;-72
2023/05/16 08:09:08;;;;;;;3.87;1.70;;;;;;;;;;5025342;28;20277;-72
2023/05/16 08:11:35;;;;;;;1.90;1.70;;;;;;;;;;5025459;28;20198;-72
2023/05/16 08:14:01;;;;;;;2.03;1.50;;;;;;;;;;5024442;28;20193;-74
2023/05/16 08:16:27;;;;;;;2.13;1.40;;;;;;;;;;5023481;28;20237;-73
2023/05/16 08:18:54;;;;;;;1.30;1.20;;;;;;;;;;5005347;28;20478;-73
2023/05/16 08:21:20;;;;;;;1.23;1.13;;;;;;;;;;5023807;28;20193;-72
2023/05/16 08:23:46;;;;;;;0.97;0.97;;;;;;;;;;5023503;28;20186;-73
2023/05/16 08:26:13;;;;;;;1.77;1.23;;;;;;;;;;5006102;28;20218;-73
2023/05/16 08:28:39;;;;;;;1.30;1.20;;;;;;;;;;5024959;28;20182;-74
2023/05/16 08:31:06;;;;;;;1.30;1.20;;;;;;;;;;5023930;28;20275;-73
2023/05/16 08:33:32;;;;;;;2.60;1.33;;;;;;;;;;5023836;28;20193;-72
2023/05/16 08:35:58;;;;;;;1.77;1.30;;;;;;;;;;5024560;28;20202;-72
2023/05/16 08:38:24;;;;;;;1.30;1.20;;;;;;;;;;5024618;28;20186;-72
2023/05/16 08:40:50;;;;;;;1.63;1.30;;;;;;;;;;5022743;28;20179;-72
2023/05/16 08:43:17;;;;;;;1.50;1.40;;;;;;;;;;5025855;28;20733;-72
2023/05/16 08:45:43;;;;;;;1.70;1.60;;;;;;;;;;5004085;28;20627;-72
2023/05/16 08:48:10;;;;;;;1.70;1.40;;;;;;;;;;5023445;28;20324;-72
2023/05/16 08:50:37;;;;;;;1.80;1.40;;;;;;;;;;5003614;28;20853;-72
2023/05/16 08:53:07;;;;;;;1.60;1.37;;;;;;;;;;5024409;28;20188;-72
2023/05/16 08:55:35;;;;;;;1.40;1.20;;;;;;;;;;5022093;28;20238;-72
2023/05/16 08:58:01;;;;;;;2.60;1.10;;;;;;;;;;5023086;28;20179;-72
2023/05/16 09:00:27;;;;;;;1.40;1.30;;;;;;;;;;5025905;28;20182;-72
2023/05/16 09:02:54;;;;;;;1.30;1.20;;;;;;;;;;5010841;28;20236;-72
2023/05/16 09:05:22;;;;;;;1.30;1.13;;;;;;;;;;5029179;28;20198;-72
2023/05/16 09:07:49;;;;;;;1.30;1.20;;;;;;;;;;5024908;28;20183;-72
2023/05/16 09:10:15;;;;;;;1.40;1.30;;;;;;;;;;5027602;28;20218;-72
2023/05/16 09:12:42;;;;;;;1.63;1.43;;;;;;;;;;5027341;28;20904;-72
2023/05/16 09:15:12;;;;;;;1.50;1.40;;;;;;;;;;5022355;28;20289;-72
2023/05/16 09:17:42;;;;;;;1.87;1.00;;;;;;;;;;5027385;28;20665;-72
2023/05/16 09:20:12;;;;;;;1.03;0.83;;;;;;;;;;5021492;28;20274;-72
2023/05/16 09:22:38;;;;;;;1.23;1.10;;;;;;;;;;5025177;28;20183;-72
2023/05/16 09:25:05;;;;;;;2.77;1.10;;;;;;;;;;5026532;28;20190;-71
2023/05/16 09:27:31;;;;;;;3.30;0.90;;;;;;;;;;5025615;28;20225;-71
2023/05/16 09:29:58;;;;;;;2.07;1.00;;;;;;;;;;5025049;28;20229;-72
2023/05/16 09:32:25;;;;;;;0.90;0.80;;;;;;;;;;5021733;28;20198;-72
2023/05/16 09:34:52;;;;;;;1.67;1.00;;;;;;;;;;5019022;28;21088;-72
2023/05/16 09:37:19;;;;;;;1.00;1.00;;;;;;;;;;5027424;28;20223;-71
2023/05/16 09:39:48;;;;;;;1.53;0.90;;;;;;;;;;5027661;28;20179;-72
2023/05/16 09:42:15;;;;;;;4.87;0.97;;;;;;;;;;5030830;28;20917;-72
2023/05/16 09:44:45;;;;;;;1.00;0.90;;;;;;;;;;5017592;28;20661;-72
2023/05/16 09:47:14;;;;;;;0.80;0.80;;;;;;;;;;5027572;28;20198;-72
2023/05/16 09:49:40;;;;;;;0.70;0.70;;;;;;;;;;5031626;28;20219;-72
2023/05/16 09:52:06;;;;;;;0.97;0.80;;;;;;;;;;5013345;28;20212;-72
2023/05/16 09:54:33;;;;;;;1.30;0.90;;;;;;;;;;5026981;28;20190;-71
2023/05/16 09:56:59;;;;;;;0.93;0.80;;;;;;;;;;5032754;28;20577;-71
2023/05/16 09:59:28;;;;;;;1.00;0.80;;;;;;;;;;5010024;28;20193;-72
2023/05/16 10:01:54;;;;;;;1.83;1.00;;;;;;;;;;5032990;28;20181;-72
2023/05/16 10:04:20;;;;;;;1.83;0.80;;;;;;;;;;5024371;28;20503;-72
2023/05/16 10:06:47;;;;;;;1.33;1.00;;;;;;;;;;5031564;28;20206;-72
2023/05/16 10:09:15;;;;;;;0.83;0.80;;;;;;;;;;5038644;28;20216;-72
2023/05/16 10:11:42;;;;;;;0.90;0.90;;;;;;;;;;5027197;28;20910;-71
2023/05/16 10:14:11;;;;;;;2.70;1.10;;;;;;;;;;5034763;28;20212;-72
2023/05/16 10:16:41;;;;;;;1.00;0.90;;;;;;;;;;5025083;28;20247;-72
2023/05/16 10:19:08;;;;;;;1.67;1.00;;;;;;;;;;5028616;28;20186;-72
2023/05/16 10:21:34;;;;;;;1.37;1.13;;;;;;;;;;5032962;28;20618;-72
2023/05/16 10:24:03;;;;;;;1.57;1.00;;;;;;;;;;5026526;28;20182;-72
2023/05/16 10:26:30;;;;;;;1.70;1.10;;;;;;;;;;5016664;28;20251;-72
2023/05/16 10:28:56;;;;;;;1.37;1.10;;;;;;;;;;5030228;28;20187;-72
2023/05/16 10:31:23;;;;;;;1.27;1.10;;;;;;;;;;5026967;28;20201;-72
2023/05/16 10:33:50;;;;;;;1.67;1.10;;;;;;;;;;5030515;28;20190;-72
2023/05/16 10:36:17;;;;;;;1.10;1.00;;;;;;;;;;5027826;28;20210;-72
2023/05/16 10:38:44;;;;;;;2.53;1.00;;;;;;;;;;5032328;28;20179;-72
2023/05/16 10:41:14;;;;;;;1.60;1.10;;;;;;;;;;5031850;28;20194;-72
2023/05/16 10:43:43;;;;;;;1.40;1.00;;;;;;;;;;5032614;28;20924;-72
2023/05/16 10:46:10;;;;;;;2.10;1.00;;;;;;;;;;5030931;28;20436;-72
2023/05/16 10:48:37;;;;;;;3.53;1.30;;;;;;;;;;5032688;28;20925;-72
2023/05/16 10:51:23;;;;;;;1.10;1.00;;;;;;;;;;5038275;28;20183;-72
2023/05/16 10:53:53;;;;;;;1.20;1.00;;;;;;;;;;5032384;28;20194;-72
2023/05/16 10:56:23;;;;;;;1.57;1.17;;;;;;;;;;5028942;28;20812;-72
2023/05/16 10:58:50;;;;;;;1.77;1.30;;;;;;;;;;5032204;28;20186;-72
2023/05/16 11:01:16;;;;;;;1.97;1.30;;;;;;;;;;5028969;28;20209;-72
2023/05/16 11:03:58;;;;;;;1.90;1.47;;;;;;;;;;5027793;28;20178;-71
2023/05/16 11:06:25;;;;;;;2.33;1.20;;;;;;;;;;5028194;28;20217;-71
2023/05/16 11:09:12;;;;;;;1.70;1.33;;;;;;;;;;5031634;28;20182;-71
2023/05/16 11:11:47;;;;;;;3.23;1.40;;;;;;;;;;5027550;28;20244;-71
2023/05/16 11:14:31;;;;;;;1.43;1.30;;;;;;;;;;5030355;28;20686;-71
2023/05/16 11:17:02;;;;;;;2.27;1.40;;;;;;;;;;5028588;28;20215;-71
2023/05/16 11:19:32;;;;;;;3.20;1.30;;;;;;;;;;5030817;28;20208;-71
2023/05/16 11:22:06;;;;;;;3.20;1.40;;;;;;;;;;5013593;28;20190;-72
2023/05/16 11:24:33;;;;;;;1.83;1.37;;;;;;;;;;5023294;28;20685;-71
2023/05/16 11:27:00;;;;;;;2.63;1.60;;;;;;;;;;5028379;28;20731;-72
2023/05/16 11:29:32;;;;;;;1.53;1.40;;;;;;;;;;5028535;28;20176;-72
2023/05/16 11:32:03;;;;;;;3.27;1.43;;;;;;;;;;5029563;28;20182;-72
2023/05/16 11:34:30;;;;;;;1.40;1.30;;;;;;;;;;5035879;28;20250;-72
2023/05/16 11:36:56;;;;;;;1.63;1.40;;;;;;;;;;5026760;28;21552;-70
2023/05/16 11:39:24;;;;;;;3.57;1.60;;;;;;;;;;5031349;28;20737;-70
2023/05/16 11:41:50;;;;;;;2.50;1.60;;;;;;;;;;5030882;28;20549;-70
2023/05/16 11:44:17;;;;;;;3.10;1.50;;;;;;;;;;5026789;28;20212;-73
2023/05/16 11:46:43;;;;;;;3.57;1.80;;;;;;;;;;5027298;28;20206;-70
2023/05/16 11:49:09;;;;;;;2.13;1.60;;;;;;;;;;5031370;28;20557;-71
2023/05/16 11:51:42;;;;;;;1.77;1.53;;;;;;;;;;5048976;28;20185;-71
2023/05/16 11:54:11;;;;;;;3.27;1.70;;;;;;;;;;5038777;28;20340;-71
2023/05/16 11:56:39;;;;;;;2.47;1.53;;;;;;;;;;5031317;28;20217;-71
2023/05/16 11:59:06;;;;;;;2.93;1.67;;;;;;;;;;5028979;28;20163;-71
2023/05/16 12:01:36;;;;;;;2.77;1.60;;;;;;;;;;5029413;28;20512;-71
2023/05/16 12:04:11;;;;;;;3.70;1.47;;;;;;;;;;5028058;28;20174;-73
2023/05/16 12:06:37;;;;;;;2.77;1.57;;;;;;;;;;5031541;28;20213;-72
2023/05/16 12:09:09;;;;;;;1.97;1.50;;;;;;;;;;5029402;28;20303;-74
2023/05/16 12:11:43;;;;;;;2.23;1.70;;;;;;;;;;5030391;28;20550;-71
2023/05/16 12:14:15;;;;;;;3.37;1.93;;;;;;;;;;5028385;28;20182;-72
2023/05/16 12:16:42;;;;;;;5.47;2.10;;;;;;;;;;5030482;28;20312;-72
2023/05/16 12:19:09;;;;;;;3.60;1.70;;;;;;;;;;5025141;28;20647;-71
2023/05/16 12:21:35;;;;;;;5.37;1.80;;;;;;;;;;5026313;28;20269;-71
2023/05/16 12:24:02;;;;;;;2.83;1.80;;;;;;;;;;5029086;28;20186;-72
2023/05/16 12:26:29;;;;;;;7.03;2.10;;;;;;;;;;5027480;28;20308;-72
2023/05/16 12:29:02;;;;;;;3.77;2.03;;;;;;;;;;5022167;28;20190;-72
2023/05/16 12:31:32;;;;;;;4.87;2.20;;;;;;;;;;5007595;28;20199;-72
2023/05/16 12:33:58;;;;;;;4.90;2.00;;;;;;;;;;5027987;28;20336;-73
2023/05/16 12:36:25;;;;;;;8.73;2.40;;;;;;;;;;5024930;28;20211;-72
2023/05/16 12:38:52;;;;;;;3.30;1.90;;;;;;;;;;5020875;28;20562;-72
2023/05/16 12:41:20;;;;;;;7.90;2.17;;;;;;;;;;5030699;28;20178;-72
2023/05/16 12:43:47;;;;;;;6.57;2.17;;;;;;;;;;5031248;28;20269;-72
2023/05/16 12:46:13;;;;;;;6.70;2.30;;;;;;;;;;5036013;28;20194;-72
2023/05/16 12:48:43;;;;;;;3.67;1.77;;;;;;;;;;5030516;28;20662;-72
2023/05/16 12:51:16;;;;;;;5.50;2.20;;;;;;;;;;5027021;28;20533;-72
2023/05/16 12:53:44;;;;;;;2.87;1.87;;;;;;;;;;5018409;28;20202;-72
2023/05/16 12:56:10;;;;;;;3.80;2.00;;;;;;;;;;5030413;28;20275;-75
2023/05/16 12:58:37;;;;;;;2.80;1.90;;;;;;;;;;5030478;28;20587;-74
2023/05/16 13:01:04;;;;;;;4.77;1.80;;;;;;;;;;5025407;28;20616;-73
2023/05/16 13:03:30;;;;;;;3.27;2.10;;;;;;;;;;5025530;28;20638;-72
2023/05/16 13:05:56;;;;;;;5.50;1.73;;;;;;;;;;5024146;28;20256;-72
2023/05/16 13:08:22;;;;;;;3.03;1.80;;;;;;;;;;5030074;28;20191;-72
2023/05/16 13:10:48;;;;;;;7.00;2.30;;;;;;;;;;5033166;28;20178;-72
2023/05/16 13:13:17;;;;;;;5.43;1.90;;;;;;;;;;5033995;28;20194;-73
2023/05/16 13:15:44;;;;;;;5.90;2.20;;;;;;;;;;5033098;28;20272;-72
2023/05/16 13:18:10;;;;;;;5.63;2.30;;;;;;;;;;5032411;28;20194;-71
2023/05/16 13:20:37;;;;;;;4.93;2.10;;;;;;;;;;5025070;28;20183;-71
2023/05/16 13:23:04;;;;;;;5.87;2.20;;;;;;;;;;5031547;28;20275;-71
2023/05/16 13:25:31;;;;;;;4.43;2.00;;;;;;;;;;5032775;28;20214;-71
2023/05/16 13:27:57;;;;;;;6.07;1.90;;;;;;;;;;5015947;28;20303;-71
2023/05/16 13:30:23;;;;;;;3.60;1.70;;;;;;;;;;5033555;28;20653;-71
2023/05/16 13:32:51;;;;;;;4.33;1.70;;;;;;;;;;5044446;28;20182;-72
2023/05/16 13:35:17;;;;;;;3.13;1.60;;;;;;;;;;5036830;28;20344;-72
2023/05/16 13:37:43;;;;;;;3.70;1.73;;;;;;;;;;5033103;28;20190;-72
2023/05/16 13:40:10;;;;;;;4.73;1.60;;;;;;;;;;5028705;28;20198;-72
2023/05/16 13:42:37;;;;;;;3.63;1.70;;;;;;;;;;5028639;28;20183;-72
2023/05/16 13:45:04;;;;;;;4.13;1.73;;;;;;;;;;5016604;28;20190;-72
2023/05/16 13:47:33;;;;;;;4.33;1.60;;;;;;;;;;5034056;28;20225;-74
2023/05/16 13:50:07;;;;;;;5.70;1.60;;;;;;;;;;5032420;28;20668;-72
2023/05/16 13:52:34;;;;;;;4.27;1.50;;;;;;;;;;5025996;28;20190;-72
2023/05/16 13:55:00;;;;;;;4.53;1.50;;;;;;;;;;5033237;28;20256;-71
2023/05/16 13:57:26;;;;;;;3.73;1.67;;;;;;;;;;5021626;28;20737;-72
2023/05/16 13:59:53;;;;;;;7.87;1.53;;;;;;;;;;5019260;28;20178;-72
2023/05/16 14:02:19;;;;;;;6.43;1.73;;;;;;;;;;5007938;28;20865;-72
2023/05/16 14:04:45;;;;;;;5.00;1.50;;;;;;;;;;5028792;28;20261;-72
2023/05/16 14:07:11;;;;;;;6.10;1.50;;;;;;;;;;5030946;28;20278;-72
2023/05/16 14:09:41;;;;;;;4.30;1.67;;;;;;;;;;5031477;28;20559;-72
2023/05/16 14:12:07;;;;;;;5.33;1.60;;;;;;;;;;5029147;28;20198;-72
2023/05/16 14:14:34;;;;;;;4.87;1.83;;;;;;;;;;5032247;28;20182;-72
2023/05/16 14:17:01;;;;;;;7.13;2.30;;;;;;;;;;5033031;28;20230;-72
2023/05/16 14:19:27;;;;;;;4.23;1.50;;;;;;;;;;5031263;28;20182;-72
2023/05/16 14:21:53;;;;;;;5.50;1.67;;;;;;;;;;5028474;28;20264;-73
2023/05/16 14:24:19;;;;;;;6.53;1.70;;;;;;;;;;5029812;28;20210;-72
2023/05/16 14:26:46;;;;;;;4.37;1.80;;;;;;;;;;5035592;28;20206;-72
2023/05/16 14:29:12;;;;;;;4.70;1.80;;;;;;;;;;5040464;28;20638;-72
2023/05/16 14:31:39;;;;;;;4.13;1.53;;;;;;;;;;5049510;28;20588;-72